Time;durP1;ratioP1;P1;durP2;ratioP2;P2;SDS_P1;SDS_P2;PMS_P1;PMS_P2;Temp;Humidity;BMP_temperature;BMP_pressure;BME280_temperature;BME280_humidity;BME280_pressure;Samples;Min_cycle;Max_cycle;Signal;HPM_P1;HPM_P2
2022/05/30 00:00:08;;;;;;;7.10;5.10;;;;;;;17.60;69.63;98497.56;5031822;28;20083;-70
2022/05/30 00:02:35;;;;;;;6.00;4.45;;;;;;;17.48;70.33;98493.13;5030739;28;20033;-71
2022/05/30 00:05:01;;;;;;;8.25;5.22;;;;;;;17.45;70.15;98499.59;5032857;28;20083;-70
2022/05/30 00:07:27;;;;;;;10.52;4.85;;;;;;;17.49;70.43;98510.91;5029333;28;20037;-73
2022/05/30 00:09:52;;;;;;;8.15;6.65;;;;;;;17.48;70.09;98504.41;5031396;28;20057;-72
2022/05/30 00:12:18;;;;;;;7.45;5.00;;;;;;;17.48;70.46;98512.91;5030881;28;20061;-71
2022/05/30 00:14:45;;;;;;;9.88;5.07;;;;;;;17.41;70.78;98512.94;5029543;28;20043;-71
2022/05/30 00:17:11;;;;;;;6.88;4.72;;;;;;;17.47;70.40;98528.25;5013320;28;20091;-71
2022/05/30 00:19:37;;;;;;;8.52;4.47;;;;;;;17.60;69.54;98523.00;5033320;28;20033;-71
2022/05/30 00:22:04;;;;;;;7.90;4.25;;;;;;;17.86;68.24;98529.41;5031223;28;20029;-71
2022/05/30 00:24:31;;;;;;;8.50;4.93;;;;;;;18.02;67.17;98530.97;5016848;28;20029;-72
2022/05/30 00:26:57;;;;;;;12.45;5.72;;;;;;;18.22;65.58;98535.00;5030897;28;20034;-71
2022/05/30 00:29:22;;;;;;;8.15;4.95;;;;;;;18.36;65.39;98525.66;5009610;28;20033;-71
2022/05/30 00:31:48;;;;;;;7.88;5.43;;;;;;;18.45;64.98;98533.69;5013141;28;20033;-71
2022/05/30 00:34:14;;;;;;;8.52;4.55;;;;;;;18.44;64.75;98512.25;5012542;28;20400;-71
2022/05/30 00:36:41;;;;;;;5.82;4.68;;;;;;;18.16;65.50;98510.34;5030271;28;20054;-72
2022/05/30 00:39:06;;;;;;;6.72;5.28;;;;;;;17.89;66.78;98516.47;5031005;28;20035;-71
2022/05/30 00:41:32;;;;;;;15.70;5.30;;;;;;;17.65;67.63;98513.31;5014361;28;20025;-71
2022/05/30 00:43:58;;;;;;;12.65;5.60;;;;;;;17.43;68.84;98521.81;5030776;28;20081;-71
2022/05/30 00:46:23;;;;;;;11.18;4.43;;;;;;;17.39;69.10;98529.47;5029094;28;20037;-71
2022/05/30 00:48:53;;;;;;;9.55;5.20;;;;;;;17.29;69.82;98533.13;5029110;28;20079;-71
2022/05/30 00:51:24;;;;;;;8.10;4.65;;;;;;;17.23;70.07;98527.84;5031103;28;20030;-70
2022/05/30 00:53:53;;;;;;;7.03;5.00;;;;;;;17.28;69.83;98528.69;5031145;28;20033;-70
2022/05/30 00:56:20;;;;;;;9.32;4.93;;;;;;;17.36;69.86;98539.56;5019001;28;20548;-72
2022/05/30 00:58:48;;;;;;;8.75;4.85;;;;;;;17.38;69.78;98556.13;5009353;28;20022;-71
2022/05/30 01:01:15;;;;;;;9.45;4.63;;;;;;;17.44;69.65;98551.69;5009850;28;20071;-71
2022/05/30 01:06:42;;;;;;;6.18;5.45;;;;;;;17.50;69.21;98552.91;5030344;28;20044;-70
2022/05/30 01:09:11;;;;;;;11.98;5.00;;;;;;;17.49;69.39;98551.25;5012370;28;20029;-70
2022/05/30 01:11:52;;;;;;;10.00;4.90;;;;;;;17.39;69.65;98547.22;5030334;28;20030;-70
2022/05/30 01:14:18;;;;;;;13.23;5.72;;;;;;;17.40;69.71;98553.72;5030829;28;20772;-71
2022/05/30 01:16:43;;;;;;;8.38;4.55;;;;;;;17.49;69.05;98554.09;5012847;28;20483;-70
2022/05/30 01:19:26;;;;;;;10.35;4.95;;;;;;;17.50;68.46;98547.25;5015985;28;20025;-71
2022/05/30 01:22:00;;;;;;;7.15;5.22;;;;;;;17.55;68.87;98560.13;5033593;28;20022;-71
2022/05/30 01:24:55;;;;;;;7.78;4.53;;;;;;;17.52;69.01;98560.97;5017263;28;20033;-71
2022/05/30 01:27:53;;;;;;;7.22;4.70;;;;;;;17.56;68.72;98563.78;5016370;28;20564;-71
2022/05/30 01:30:19;;;;;;;9.55;5.25;;;;;;;17.57;68.51;98556.91;5016797;28;20432;-70
2022/05/30 01:32:45;;;;;;;11.05;5.00;;;;;;;17.47;68.80;98565.00;5033840;28;20044;-71
2022/05/30 01:35:11;;;;;;;7.82;5.15;;;;;;;17.54;68.16;98570.66;5033462;28;20068;-71
2022/05/30 01:37:37;;;;;;;10.02;5.70;;;;;;;17.53;68.25;98571.06;5034831;28;20025;-71
2022/05/30 01:40:04;;;;;;;12.80;5.32;;;;;;;17.56;67.95;98577.94;5016814;28;20052;-73
2022/05/30 01:42:30;;;;;;;6.32;4.57;;;;;;;17.47;68.51;98581.94;5034022;28;20029;-71
2022/05/30 01:44:56;;;;;;;9.48;5.57;;;;;;;17.44;68.33;98573.50;5034486;28;20520;-71
2022/05/30 01:47:22;;;;;;;11.13;5.70;;;;;;;17.66;67.99;98583.56;5033994;28;20061;-70
2022/05/30 01:49:48;;;;;;;8.98;4.80;;;;;;;17.63;67.94;98587.22;5032138;28;20083;-71
2022/05/30 01:52:13;;;;;;;10.52;5.78;;;;;;;17.64;67.81;98588.03;5033872;28;20097;-71
2022/05/30 01:54:39;;;;;;;12.82;6.43;;;;;;;17.58;68.09;98584.81;5016668;28;20401;-70
2022/05/30 01:57:05;;;;;;;10.10;4.97;;;;;;;17.51;68.43;98587.63;5033264;28;20488;-71
2022/05/30 01:59:30;;;;;;;9.10;5.47;;;;;;;17.49;68.38;98578.72;5029010;28;20025;-71
2022/05/30 02:01:56;;;;;;;9.55;5.25;;;;;;;17.67;67.76;98585.19;5033742;28;20026;-71
2022/05/30 02:04:21;;;;;;;13.30;5.28;;;;;;;17.60;68.09;98590.84;5015737;28;20029;-71
2022/05/30 02:06:47;;;;;;;10.27;5.20;;;;;;;17.26;69.49;98582.75;5029949;28;20029;-71
2022/05/30 02:09:12;;;;;;;8.63;4.75;;;;;;;17.37;69.08;98588.41;5047488;28;20037;-71
2022/05/30 02:11:38;;;;;;;9.23;4.35;;;;;;;17.08;70.16;98579.91;5033480;28;20095;-71
2022/05/30 02:14:04;;;;;;;7.43;4.70;;;;;;;16.94;71.21;98589.94;5016264;28;20076;-71
2022/05/30 02:19:17;;;;;;;6.88;5.80;;;;;;;16.88;71.67;98587.91;5024919;28;20062;-71
2022/05/30 02:21:43;;;;;;;10.25;5.20;;;;;;;17.02;70.78;98598.47;5031295;28;20033;-71
2022/05/30 02:24:08;;;;;;;11.68;5.65;;;;;;;17.11;70.44;98598.88;5039566;28;20033;-71
2022/05/30 02:26:36;;;;;;;7.38;4.70;;;;;;;17.16;69.72;98586.38;5033411;28;20072;-71
2022/05/30 02:29:04;;;;;;;11.98;5.45;;;;;;;17.41;69.08;98606.19;5033211;28;20065;-71
2022/05/30 02:31:30;;;;;;;9.40;5.68;;;;;;;17.53;68.23;98607.81;5030944;28;20468;-70
2022/05/30 02:36:41;;;;;;;11.57;5.25;;;;;;;17.66;67.54;98605.41;5027811;28;20503;-71
2022/05/30 02:39:15;;;;;;;15.80;5.50;;;;;;;17.54;67.94;98615.88;5034223;28;20495;-71
2022/05/30 02:41:42;;;;;;;12.35;5.88;;;;;;;17.63;67.57;98614.69;5032976;28;20036;-71
2022/05/30 02:44:08;;;;;;;8.07;5.22;;;;;;;17.40;68.16;98627.97;5032287;28;20045;-70
2022/05/30 02:46:34;;;;;;;11.52;4.55;;;;;;;17.59;67.85;98619.50;5032016;28;20029;-71
2022/05/30 02:49:00;;;;;;;23.70;6.40;;;;;;;17.72;67.22;98628.41;5030369;28;20092;-70
2022/05/30 02:51:26;;;;;;;11.80;4.65;;;;;;;17.84;66.54;98636.50;5033173;28;20034;-71
2022/05/30 02:53:52;;;;;;;12.68;5.20;;;;;;;17.81;66.72;98646.59;5032620;28;20044;-72
2022/05/30 02:56:18;;;;;;;9.70;5.72;;;;;;;17.42;67.72;98660.69;5029595;28;20032;-71
2022/05/30 02:58:44;;;;;;;9.95;5.00;;;;;;;17.25;68.42;98666.75;5032612;28;20718;-71
2022/05/30 03:01:10;;;;;;;20.50;5.75;;;;;;;16.93;69.82;98655.28;5032590;28;20432;-71
2022/05/30 03:03:36;;;;;;;10.52;4.95;;;;;;;16.80;70.44;98654.84;5026438;28;20329;-70
2022/05/30 03:06:02;;;;;;;13.05;5.10;;;;;;;16.76;70.60;98666.13;5014521;28;20083;-71
2022/05/30 03:08:28;;;;;;;8.98;4.97;;;;;;;16.68;71.06;98665.28;5029875;28;20112;-71
2022/05/30 03:10:54;;;;;;;11.38;5.60;;;;;;;16.74;70.99;98673.38;5032855;28;20119;-71
2022/05/30 03:13:19;;;;;;;12.38;5.80;;;;;;;16.74;70.93;98681.84;5032501;28;20103;-71
2022/05/30 03:15:44;;;;;;;11.27;5.95;;;;;;;16.51;71.60;98671.66;5032521;28;20022;-71
2022/05/30 03:18:10;;;;;;;10.65;5.60;;;;;;;16.47;72.08;98682.13;5029461;28;20436;-71
2022/05/30 03:20:36;;;;;;;15.88;6.15;;;;;;;16.49;72.38;98682.53;5014532;28;20376;-71
2022/05/30 03:23:01;;;;;;;8.70;4.65;;;;;;;16.51;71.79;98692.22;5016287;28;20144;-71
2022/05/30 03:25:27;;;;;;;10.05;4.80;;;;;;;16.44;72.40;98699.84;5015528;28;20029;-71
2022/05/30 03:27:53;;;;;;;11.30;5.10;;;;;;;16.37;72.68;98701.41;5032708;28;20036;-72
2022/05/30 03:35:57;;;;;;;28.98;8.65;;;;;;;16.88;70.20;98709.34;5025887;28;20049;-71
2022/05/30 03:38:23;;;;;;;15.88;7.72;;;;;;;17.05;69.28;98711.47;5039540;28;20063;-73
2022/05/30 03:40:48;;;;;;;28.38;11.15;;;;;;;17.11;68.85;98714.72;5045278;28;20040;-73
2022/05/30 03:43:14;;;;;;;18.33;8.23;;;;;;;17.11;68.97;98724.00;5030194;28;20033;-73
2022/05/30 03:45:41;;;;;;;15.07;7.10;;;;;;;17.21;68.83;98724.44;5032173;28;20083;-73
2022/05/30 03:48:09;;;;;;;8.45;5.38;;;;;;;17.12;69.33;98725.63;5031888;28;20039;-73
2022/05/30 03:50:38;;;;;;;9.68;5.57;;;;;;;17.25;69.10;98733.75;5031782;28;20487;-73
2022/05/30 03:53:07;;;;;;;32.20;5.68;;;;;;;17.42;68.12;98735.00;5031276;28;20033;-73
2022/05/30 03:55:36;;;;;;;9.27;4.80;;;;;;;17.24;68.59;98734.94;5013251;28;20468;-72
2022/05/30 03:58:05;;;;;;;9.43;5.18;;;;;;;17.09;69.24;98728.44;5032143;28;20033;-73
2022/05/30 04:00:32;;;;;;;10.82;5.93;;;;;;;17.16;68.99;98739.78;5031174;28;20029;-72
2022/05/30 04:02:59;;;;;;;11.93;5.85;;;;;;;17.32;68.58;98733.78;5013611;28;20045;-73
2022/05/30 04:05:24;;;;;;;9.45;5.45;;;;;;;17.34;68.75;98741.84;5023336;28;20021;-73
2022/05/30 04:07:50;;;;;;;12.38;5.30;;;;;;;17.50;67.58;98738.66;5032011;28;20087;-73
2022/05/30 04:10:16;;;;;;;9.75;4.82;;;;;;;17.53;67.71;98735.84;5029649;28;20116;-73
2022/05/30 04:12:42;;;;;;;9.10;5.75;;;;;;;17.74;66.86;98739.09;5028631;28;20065;-73
2022/05/30 04:15:15;;;;;;;6.85;4.70;;;;;;;17.85;66.34;98737.09;5013566;28;20112;-72
2022/05/30 04:17:40;;;;;;;10.30;5.63;;;;;;;17.86;66.31;98740.72;5026264;28;20462;-74
2022/05/30 04:20:07;;;;;;;343.10;36.65;;;;;;;17.98;66.14;98745.19;5031295;28;20029;-72
2022/05/30 04:22:33;;;;;;;175.15;17.23;;;;;;;18.14;65.66;98753.31;5012237;28;20026;-72
2022/05/30 04:24:58;;;;;;;10.48;4.85;;;;;;;18.09;65.05;98752.47;5013686;28;20124;-73
2022/05/30 04:27:24;;;;;;;11.82;5.95;;;;;;;18.09;65.25;98746.81;5030672;28;20144;-75
2022/05/30 04:29:50;;;;;;;10.77;5.05;;;;;;;18.27;65.23;98750.88;5013445;28;20060;-76
2022/05/30 04:32:18;;;;;;;12.10;4.35;;;;;;;18.41;64.65;98748.06;5030105;28;20029;-73
2022/05/30 04:34:45;;;;;;;11.65;4.80;;;;;;;18.67;64.50;98762.97;5020222;28;20050;-73
2022/05/30 04:37:11;;;;;;;13.55;5.28;;;;;;;18.77;63.42;98759.31;5028953;28;20108;-73
2022/05/30 04:39:36;;;;;;;13.07;4.80;;;;;;;18.91;62.82;98752.78;5030877;28;20116;-74
2022/05/30 04:42:03;;;;;;;12.65;5.13;;;;;;;18.97;61.96;98750.34;5030074;28;20647;-74
2022/05/30 04:44:29;;;;;;;6.13;4.53;;;;;;;19.10;61.10;98764.91;5030162;28;20097;-74
2022/05/30 04:46:56;;;;;;;6.28;4.20;;;;;;;19.06;61.06;98759.25;5027313;28;20029;-75
2022/05/30 04:49:22;;;;;;;27.77;5.47;;;;;;;19.25;61.05;98757.16;5030148;28;20029;-75
2022/05/30 04:51:49;;;;;;;13.02;4.43;;;;;;;19.18;60.17;98751.50;5029508;28;20459;-75
2022/05/30 04:54:15;;;;;;;14.60;4.88;;;;;;;19.26;60.28;98774.97;5030876;28;20120;-74
2022/05/30 04:56:41;;;;;;;13.02;5.90;;;;;;;19.18;59.94;98772.16;5029777;28;20026;-74
2022/05/30 04:59:06;;;;;;;13.68;4.95;;;;;;;19.10;60.38;98772.59;5033191;28;20427;-75
2022/05/30 05:01:33;;;;;;;10.13;4.65;;;;;;;19.02;61.12;98783.16;5032468;28;20445;-75
2022/05/30 05:03:59;;;;;;;12.35;5.10;;;;;;;18.97;61.81;98780.72;5031094;28;20030;-74
2022/05/30 05:06:25;;;;;;;11.60;5.65;;;;;;;18.91;61.87;98775.44;5032670;28;20097;-74
2022/05/30 05:08:51;;;;;;;8.00;5.60;;;;;;;19.15;61.27;98780.69;5031961;28;20080;-75
2022/05/30 05:11:24;;;;;;;9.25;5.60;;;;;;;19.16;61.12;98770.97;5025827;28;20047;-74
2022/05/30 05:13:51;;;;;;;9.27;6.20;;;;;;;19.22;61.57;98787.13;5026047;28;20037;-74
2022/05/30 05:16:19;;;;;;;7.45;5.32;;;;;;;19.41;60.30;98785.00;5033394;28;20036;-75
2022/05/30 05:18:44;;;;;;;13.45;5.15;;;;;;;19.57;60.63;98792.25;5029377;28;20057;-75
2022/05/30 05:21:25;;;;;;;8.85;4.45;;;;;;;19.44;60.34;98791.91;5032960;28;20126;-74
2022/05/30 05:23:51;;;;;;;11.80;5.30;;;;;;;19.50;59.58;98782.53;5032087;28;20029;-74
2022/05/30 05:26:18;;;;;;;16.63;5.47;;;;;;;19.62;59.87;98794.66;5030421;28;20029;-74
2022/05/30 05:28:44;;;;;;;10.95;5.78;;;;;;;19.73;59.64;98791.72;5034617;28;20071;-75
2022/05/30 05:31:20;;;;;;;9.13;4.82;;;;;;;19.81;59.22;98803.88;5034008;28;20037;-75
2022/05/30 05:33:45;;;;;;;15.75;5.35;;;;;;;19.62;58.42;98798.31;5031148;28;20052;-75
2022/05/30 05:36:11;;;;;;;12.43;5.97;;;;;;;19.70;58.67;98799.06;5033310;28;20026;-75
2022/05/30 05:38:36;;;;;;;13.52;6.15;;;;;;;19.87;59.23;98791.66;5033057;28;20557;-75
2022/05/30 05:41:07;;;;;;;10.43;5.55;;;;;;;20.00;58.67;98800.53;5031808;28;20029;-75
2022/05/30 05:43:32;;;;;;;9.88;5.03;;;;;;;20.00;58.04;98805.41;5032942;28;20095;-74
2022/05/30 05:45:57;;;;;;;8.05;4.75;;;;;;;20.02;58.57;98803.75;5023720;28;20018;-74
2022/05/30 05:48:23;;;;;;;10.20;4.85;;;;;;;20.11;58.00;98811.81;5034276;28;20072;-74
2022/05/30 05:50:48;;;;;;;15.00;6.75;;;;;;;20.03;58.33;98808.22;5029446;28;20021;-74
2022/05/30 05:53:14;;;;;;;9.77;5.20;;;;;;;20.05;57.78;98811.44;5031979;28;20072;-74
2022/05/30 05:55:39;;;;;;;11.65;5.68;;;;;;;20.12;57.58;98806.94;5026073;28;20408;-74
2022/05/30 05:58:06;;;;;;;9.93;5.82;;;;;;;20.24;56.56;98811.31;5017135;28;20033;-75
2022/05/30 06:00:33;;;;;;;8.25;6.07;;;;;;;20.24;56.91;98812.09;5029919;28;20030;-74
2022/05/30 06:02:58;;;;;;;9.80;6.30;;;;;;;20.40;56.27;98817.25;5027092;28;20021;-74
2022/05/30 06:05:24;;;;;;;13.10;6.72;;;;;;;20.67;56.62;98819.47;5028373;28;20024;-75
2022/05/30 06:07:49;;;;;;;10.10;6.90;;;;;;;20.69;55.01;98811.31;5032312;28;20032;-75
2022/05/30 06:10:15;;;;;;;15.07;6.22;;;;;;;20.79;54.87;98823.81;5023602;28;20083;-74
2022/05/30 06:12:43;;;;;;;31.40;8.05;;;;;;;20.54;55.01;98833.38;5033330;28;20048;-73
2022/05/30 06:15:11;;;;;;;15.25;7.68;;;;;;;20.55;54.89;98828.50;5035733;28;20029;-73
2022/05/30 06:17:41;;;;;;;17.20;6.90;;;;;;;20.58;54.87;98830.53;5031184;28;20369;-74
2022/05/30 06:20:08;;;;;;;;;;;;;;;20.68;54.56;98832.44;5032440;28;20030;-74
2022/05/30 06:22:33;;;;;;;15.00;7.05;;;;;;;20.79;54.71;98828.69;5032960;28;19909;-76
2022/05/30 06:24:59;;;;;;;8.32;6.13;;;;;;;20.85;53.78;98830.69;5025460;28;20032;-77
2022/05/30 06:27:24;;;;;;;12.68;7.10;;;;;;;20.89;54.54;98827.81;5032908;28;20044;-73
2022/05/30 06:29:51;;;;;;;17.23;7.35;;;;;;;20.91;54.85;98833.88;5025500;28;20108;-76
2022/05/30 06:32:17;;;;;;;10.77;7.70;;;;;;;20.73;55.03;98832.00;5028126;28;20029;-82
2022/05/30 06:34:43;;;;;;;10.43;7.15;;;;;;;20.65;55.28;98832.50;5033201;28;20037;-82
2022/05/30 06:37:10;;;;;;;10.55;5.60;;;;;;;20.92;55.71;98840.38;5030247;28;20017;-79
2022/05/30 06:39:37;;;;;;;9.98;5.57;;;;;;;20.88;55.04;98834.72;5028697;28;20434;-77
2022/05/30 06:42:13;;;;;;;7.95;5.70;;;;;;;21.01;54.63;98849.22;5022571;28;20033;-74
2022/05/30 06:44:39;;;;;;;15.85;5.47;;;;;;;21.17;53.75;98845.78;5027788;28;20040;-72
2022/05/30 06:47:10;;;;;;;7.55;5.68;;;;;;;21.29;53.06;98847.28;5023268;28;20067;-73
2022/05/30 06:49:36;;;;;;;12.98;5.35;;;;;;;21.33;52.46;98836.69;5028915;28;20033;-76
2022/05/30 06:52:02;;;;;;;9.05;5.60;;;;;;;21.52;52.87;98842.97;5009357;28;20041;-72
2022/05/30 06:54:28;;;;;;;7.72;5.53;;;;;;;21.65;52.66;98834.66;5018990;28;20105;-72
2022/05/30 06:59:38;;;;;;;8.20;5.25;;;;;;;21.68;52.62;98831.00;5024054;28;20578;-72
2022/05/30 07:02:05;;;;;;;7.53;5.40;;;;;;;21.72;52.41;98824.03;5024632;28;20061;-71
2022/05/30 07:04:32;;;;;;;17.02;5.82;;;;;;;21.77;51.88;98842.66;5023776;28;20511;-71
2022/05/30 07:07:00;;;;;;;8.75;6.53;;;;;;;21.83;52.25;98840.16;5025197;28;20040;-73
2022/05/30 07:09:25;;;;;;;11.98;6.22;;;;;;;21.95;52.13;98835.94;5025316;28;20172;-73
2022/05/30 07:11:51;;;;;;;9.70;4.75;;;;;;;22.16;52.01;98840.50;5032911;28;20502;-72
2022/05/30 07:14:17;;;;;;;9.05;4.95;;;;;;;22.22;51.24;98843.66;5031115;28;20080;-73
2022/05/30 07:16:43;;;;;;;11.85;6.00;;;;;;;22.36;50.43;98834.88;5031248;28;20112;-73
2022/05/30 07:19:09;;;;;;;8.55;4.63;;;;;;;22.42;50.13;98835.22;5031582;28;20041;-72
2022/05/30 07:21:36;;;;;;;10.60;5.05;;;;;;;22.25;51.16;98822.84;5032138;28;20108;-73
2022/05/30 07:24:02;;;;;;;13.48;6.05;;;;;;;22.41;50.85;98834.41;5031810;28;20463;-72
2022/05/30 07:26:29;;;;;;;14.60;5.65;;;;;;;22.60;49.40;98832.09;5048422;28;20067;-72
2022/05/30 07:28:55;;;;;;;8.18;4.78;;;;;;;22.78;49.01;98819.59;5022403;28;20041;-76
2022/05/30 07:31:25;;;;;;;12.32;5.20;;;;;;;22.84;49.12;98815.00;5028280;28;20068;-73
2022/05/30 07:33:51;;;;;;;14.38;5.82;;;;;;;22.80;49.34;98829.28;5038071;28;20421;-75
2022/05/30 07:36:22;;;;;;;10.43;5.97;;;;;;;23.03;48.99;98829.72;5020790;28;20057;-74
2022/05/30 07:38:48;;;;;;;10.25;4.95;;;;;;;22.91;48.65;98825.44;5029672;28;20055;-73
2022/05/30 07:41:14;;;;;;;9.32;5.85;;;;;;;23.16;49.75;98818.47;5032188;28;20025;-75
2022/05/30 07:43:40;;;;;;;11.52;5.93;;;;;;;23.06;48.68;98815.41;5032137;28;20032;-74
2022/05/30 07:46:11;;;;;;;9.43;4.97;;;;;;;23.37;47.98;98823.00;5028708;28;20034;-72
2022/05/30 07:48:37;;;;;;;8.57;5.10;;;;;;;23.44;48.40;98822.03;5031910;28;20088;-74
2022/05/30 07:51:04;;;;;;;8.27;6.07;;;;;;;23.52;47.24;98824.28;5033217;28;20037;-74
2022/05/30 07:53:30;;;;;;;12.27;5.95;;;;;;;23.52;48.11;98829.19;5019536;28;20066;-71
2022/05/30 07:55:57;;;;;;;10.68;6.07;;;;;;;23.49;47.97;98830.06;5028951;28;20484;-74
2022/05/30 07:58:24;;;;;;;10.07;5.60;;;;;;;23.84;46.51;98837.09;5030358;28;20452;-73
2022/05/30 08:00:52;;;;;;;9.98;5.70;;;;;;;23.82;46.40;98833.06;5031998;28;20539;-73
2022/05/30 08:03:18;;;;;;;13.93;5.82;;;;;;;24.10;46.46;98839.38;5030519;28;20040;-75
2022/05/30 08:05:47;;;;;;;11.18;5.82;;;;;;;24.17;46.04;98829.84;5026349;28;20526;-75
2022/05/30 08:08:16;;;;;;;11.18;7.35;;;;;;;24.32;46.38;98833.97;5013166;28;20083;-73
2022/05/30 08:10:42;;;;;;;7.93;6.50;;;;;;;24.26;46.35;98835.75;5030164;28;20084;-74
2022/05/30 08:13:08;;;;;;;11.10;6.70;;;;;;;24.45;45.32;98839.78;5028821;28;20029;-73
2022/05/30 08:15:33;;;;;;;17.67;5.95;;;;;;;24.37;44.58;98829.75;5031676;28;20057;-72
2022/05/30 08:17:59;;;;;;;15.63;6.40;;;;;;;24.52;44.53;98845.34;5029910;28;20105;-76
2022/05/30 08:20:27;;;;;;;10.50;6.75;;;;;;;24.18;45.31;98840.84;5029365;28;20096;-75
2022/05/30 08:22:53;;;;;;;10.80;6.70;;;;;;;24.55;45.17;98843.63;5029313;28;20052;-73
2022/05/30 08:25:19;;;;;;;9.93;5.95;;;;;;;24.36;44.76;98831.00;5029694;28;20119;-79
2022/05/30 08:27:47;;;;;;;10.82;6.50;;;;;;;24.49;44.40;98837.63;5025742;28;20025;-75
2022/05/30 08:30:16;;;;;;;16.27;7.88;;;;;;;24.78;44.63;98845.53;5027294;28;20055;-75
2022/05/30 08:32:43;;;;;;;11.35;7.75;;;;;;;25.04;44.48;98839.94;5022024;28;20026;-72
2022/05/30 08:35:13;;;;;;;13.60;7.40;;;;;;;24.57;44.20;98844.00;5030516;28;20041;-73
2022/05/30 08:37:38;;;;;;;12.80;6.57;;;;;;;24.86;44.82;98843.28;5029757;28;20491;-74
2022/05/30 08:42:54;;;;;;;12.32;6.97;;;;;;;25.13;43.83;98844.22;5029088;28;20164;-74
2022/05/30 08:45:22;;;;;;;17.58;6.93;;;;;;;25.61;43.03;98844.53;5026012;28;20104;-77
2022/05/30 08:47:52;;;;;;;13.18;7.32;;;;;;;25.48;42.01;98847.34;5028467;28;20512;-78
2022/05/30 08:50:22;;;;;;;;;;;;;;;25.28;41.38;98848.28;5029275;28;20061;-76
2022/05/30 08:52:47;;;;;;;8.13;5.30;;;;;;;25.15;41.04;98858.88;5029896;28;19992;-76
2022/05/30 08:55:25;;;;;;;9.48;6.88;;;;;;;25.06;41.77;98863.19;5029454;28;20176;-81
2022/05/30 08:57:59;;;;;;;10.20;7.20;;;;;;;25.07;42.42;98856.19;5030113;28;20335;-76
2022/05/30 09:00:44;;;;;;;8.82;6.03;;;;;;;25.53;41.71;98861.13;5026029;28;20499;-77
2022/05/30 09:03:21;;;;;;;12.30;5.38;;;;;;;25.72;40.29;98865.06;5027334;28;20192;-75
2022/05/30 09:05:57;;;;;;;11.52;6.68;;;;;;;25.32;41.54;98860.44;5028697;28;20021;-72
2022/05/30 09:08:38;;;;;;;9.95;6.05;;;;;;;25.51;41.14;98864.41;5028234;28;20483;-74
2022/05/30 09:11:23;;;;;;;18.77;6.82;;;;;;;25.53;40.02;98871.78;5021352;28;20052;-73
2022/05/30 09:13:51;;;;;;;6.93;5.57;;;;;;;25.67;40.33;98861.97;5026392;28;20025;-73
2022/05/30 09:16:29;;;;;;;13.30;6.53;;;;;;;25.42;40.20;98866.31;5028043;28;20076;-75
2022/05/30 09:18:56;;;;;;;7.80;5.00;;;;;;;25.38;41.20;98867.22;5028194;28;20065;-72
2022/05/30 09:21:26;;;;;;;7.07;5.60;;;;;;;25.97;39.81;98865.59;5030078;28;20020;-77
2022/05/30 09:23:52;;;;;;;7.03;5.10;;;;;;;25.93;40.02;98869.34;5028745;28;20029;-73
2022/05/30 09:26:40;;;;;;;9.07;5.18;;;;;;;25.63;39.14;98865.72;5030859;28;20369;-73
2022/05/30 09:29:31;;;;;;;6.13;4.57;;;;;;;25.86;37.94;98872.44;5028174;28;20109;-75
2022/05/30 09:32:09;;;;;;;12.85;5.30;;;;;;;25.84;38.90;98857.78;5019157;28;20078;-73
2022/05/30 09:34:45;;;;;;;10.73;5.30;;;;;;;26.03;38.40;98869.47;5037630;28;20072;-74
2022/05/30 09:37:43;;;;;;;8.57;5.20;;;;;;;26.55;37.88;98858.06;5024088;28;20036;-73
2022/05/30 09:40:09;;;;;;;10.25;4.80;;;;;;;26.45;36.58;98860.81;5031189;28;20447;-72
2022/05/30 09:42:37;;;;;;;8.88;4.35;;;;;;;26.01;36.66;98867.09;5033222;28;20112;-73
2022/05/30 09:45:12;;;;;;;10.82;4.95;;;;;;;26.01;35.96;98867.09;5031815;28;20177;-69
2022/05/30 09:48:11;;;;;;;8.10;4.50;;;;;;;26.40;35.88;98844.19;5032202;28;20480;-71
2022/05/30 09:50:48;;;;;;;9.70;4.85;;;;;;;26.70;35.28;98853.44;5032580;28;20033;-73
2022/05/30 09:53:42;;;;;;;6.32;3.60;;;;;;;26.19;35.77;98855.09;5030871;28;20032;-72
2022/05/30 09:56:10;;;;;;;6.95;4.13;;;;;;;26.61;34.81;98856.22;5012791;28;20163;-72
2022/05/30 09:58:59;;;;;;;8.80;4.10;;;;;;;26.48;35.06;98853.34;5029768;28;20025;-72
2022/05/30 10:01:27;;;;;;;9.98;4.43;;;;;;;27.03;35.41;98856.06;5026660;28;20361;-72
2022/05/30 10:03:59;;;;;;;9.05;3.70;;;;;;;27.08;33.97;98845.25;5025549;28;20399;-72
2022/05/30 10:06:27;;;;;;;9.07;4.68;;;;;;;27.30;34.12;98853.88;5034637;28;20497;-72
2022/05/30 10:09:12;;;;;;;12.07;4.07;;;;;;;27.50;33.69;98847.81;5039312;28;20033;-72
2022/05/30 10:11:38;;;;;;;12.15;4.82;;;;;;;27.56;33.40;98848.03;5030117;28;20087;-72
2022/05/30 10:14:17;;;;;;;7.75;4.45;;;;;;;27.64;33.26;98845.72;5031986;28;20025;-72
2022/05/30 10:16:43;;;;;;;9.80;4.18;;;;;;;27.00;34.04;98853.31;5031209;28;20029;-73
2022/05/30 10:19:23;;;;;;;10.48;4.90;;;;;;;26.99;34.76;98857.44;5029925;28;20388;-72
2022/05/30 10:28:15;;;;;;;11.07;3.55;;;;;;;27.14;34.21;98857.72;5031304;28;20063;-73
2022/05/30 10:31:12;;;;;;;6.03;4.40;;;;;;;27.69;33.81;98845.88;5027892;28;20061;-73
2022/05/30 10:33:49;;;;;;;10.43;4.50;;;;;;;27.52;33.48;98844.47;5023527;28;20091;-72
2022/05/30 10:37:13;;;;;;;8.68;3.58;;;;;;;27.84;33.68;98848.22;5029279;28;20029;-73
2022/05/30 10:39:54;;;;;;;10.55;4.72;;;;;;;27.87;33.11;98853.84;4967942;28;20050;-72
2022/05/30 10:42:35;;;;;;;10.35;3.50;;;;;;;27.93;32.64;98850.34;5022588;28;20029;-73
2022/05/30 10:45:45;;;;;;;12.95;3.65;;;;;;;27.75;32.58;98855.50;5031858;28;20037;-73
2022/05/30 10:48:21;;;;;;;7.28;3.63;;;;;;;27.98;32.07;98846.84;5030824;28;20026;-73
2022/05/30 10:51:16;;;;;;;10.35;4.10;;;;;;;28.23;30.88;98845.09;5030164;28;20025;-73
2022/05/30 10:54:09;;;;;;;16.10;4.32;;;;;;;28.21;30.89;98845.56;5026851;28;20064;-72
2022/05/30 10:56:45;;;;;;;9.43;4.70;;;;;;;28.02;31.42;98833.16;5031526;28;20026;-72
2022/05/30 10:59:19;;;;;;;12.70;4.00;;;;;;;28.03;31.30;98843.38;5032104;28;20029;-72
2022/05/30 11:02:01;;;;;;;10.48;3.55;;;;;;;28.03;30.32;98840.50;5030369;28;20013;-72
2022/05/30 11:04:52;;;;;;;6.28;3.53;;;;;;;28.14;30.45;98828.56;5031024;28;20079;-73
2022/05/30 11:07:33;;;;;;;14.20;4.40;;;;;;;28.18;28.64;98837.91;4986819;28;20123;-73
2022/05/30 11:10:30;;;;;;;13.13;3.47;;;;;;;28.35;29.31;98826.94;5024446;28;20041;-73
2022/05/30 11:13:21;;;;;;;18.15;4.68;;;;;;;28.26;28.82;98832.66;5026957;28;20037;-73
2022/05/30 11:16:01;;;;;;;7.32;3.05;;;;;;;28.24;29.38;98827.38;5028915;28;20056;-73
2022/05/30 11:18:54;;;;;;;13.43;4.47;;;;;;;28.40;29.47;98834.13;5029325;28;20083;-73
2022/05/30 11:21:27;;;;;;;9.65;4.32;;;;;;;28.39;29.12;98835.41;5036223;28;20526;-73
2022/05/30 11:23:53;;;;;;;9.55;3.53;;;;;;;28.43;29.24;98834.00;5023843;28;20384;-73
2022/05/30 11:26:56;;;;;;;8.48;3.50;;;;;;;28.44;28.09;98823.31;5023649;28;20033;-72
2022/05/30 11:29:30;;;;;;;13.35;4.50;;;;;;;28.93;27.93;98836.06;5027549;28;20167;-73
2022/05/30 11:32:10;;;;;;;11.82;4.40;;;;;;;28.92;27.20;98828.69;5028485;28;20091;-73
2022/05/30 11:35:14;;;;;;;13.80;4.32;;;;;;;29.20;27.35;98834.50;5023088;28;20072;-73
2022/05/30 11:38:05;;;;;;;9.50;3.85;;;;;;;28.96;27.60;98837.19;4967837;28;20041;-73
2022/05/30 11:40:55;;;;;;;11.40;3.67;;;;;;;29.23;26.18;98836.41;4997081;28;20079;-72
2022/05/30 11:43:36;;;;;;;14.02;4.97;;;;;;;29.34;25.42;98833.03;5017885;28;20053;-72
2022/05/30 11:46:20;;;;;;;11.18;3.67;;;;;;;29.06;26.07;98837.97;5010964;28;20096;-72
2022/05/30 11:49:13;;;;;;;7.22;3.40;;;;;;;29.01;26.22;98833.66;5018237;28;20065;-73
2022/05/30 11:52:00;;;;;;;8.60;3.63;;;;;;;29.08;25.91;98824.72;5028492;28;20044;-72
2022/05/30 11:54:54;;;;;;;12.60;3.40;;;;;;;29.39;25.88;98831.59;5015452;28;20468;-72
2022/05/30 11:57:22;;;;;;;8.95;4.43;;;;;;;29.24;24.92;98837.19;5026948;28;20492;-73
2022/05/30 12:00:14;;;;;;;10.95;3.88;;;;;;;29.05;26.59;98830.63;5022264;28;20393;-73
2022/05/30 12:02:57;;;;;;;12.02;4.75;;;;;;;29.33;26.48;98839.28;5026746;28;20017;-72
2022/05/30 12:06:02;;;;;;;15.55;4.65;;;;;;;29.72;27.38;98838.78;5025963;28;20026;-73
2022/05/30 12:08:46;;;;;;;10.50;3.90;;;;;;;29.55;27.06;98836.25;4992310;28;20076;-73
2022/05/30 12:11:41;;;;;;;14.30;4.13;;;;;;;29.34;25.50;98835.91;5025885;28;20029;-73